Time;durP1;ratioP1;P1;durP2;ratioP2;P2;SDS_P1;SDS_P2;PMS_P1;PMS_P2;Temp;Humidity;BMP_temperature;BMP_pressure;BME280_temperature;BME280_humidity;BME280_pressure;Samples;Min_cycle;Max_cycle;Signal;HPM_P1;HPM_P2
2022/01/07 00:00:20;;;;;;;;;;;;;;;;;;1052303;28;774;-34
2022/01/07 00:00:50;;;;;;;;;;;;;;;;;;1052229;28;1071;-33
2022/01/07 00:01:21;;;;;;;;;;;;;;;;;;1052339;28;834;-34
2022/01/07 00:01:52;;;;;;;;;;;;;;;;;;1052287;28;874;-34
2022/01/07 00:02:22;;;;;;;;;;;;;;;;;;1052412;28;873;-34
2022/01/07 00:02:54;;;;;;;;;;;;;;;;;;1052484;28;882;-34
2022/01/07 00:03:24;;;;;;;;;;;;;;;;;;1052269;28;885;-33
2022/01/07 00:03:54;;;;;;;;;;;;;;;;;;1052344;28;877;-36
2022/01/07 00:04:25;;;;;;;;;;;;;;;;;;1052345;28;998;-35
2022/01/07 00:04:55;;;;;;;;;;;;;;;;;;1052215;28;1913;-34
2022/01/07 00:05:26;;;;;;;;;;;;;;;;;;1052499;28;810;-34
2022/01/07 00:05:58;;;;;;;;;;;;;;;;;;1052117;28;861;-34
2022/01/07 00:06:29;;;;;;;;;;;;;;;;;;1052486;28;841;-33
2022/01/07 00:06:59;;;;;;;;;;;;;;;;;;1052291;28;1046;-33
2022/01/07 00:07:29;;;;;;;;;;;;;;;;;;1052431;28;1008;-33
2022/01/07 00:08:00;;;;;;;;;;;;;;;;;;1052223;28;916;-33
2022/01/07 00:08:30;;;;;;;;;;;;;;;;;;1052431;28;892;-33
2022/01/07 00:09:00;;;;;;;;;;;;;;;;;;1052318;28;935;-33
2022/01/07 00:09:31;;;;;;;;;;;;;;;;;;1052372;28;865;-35
2022/01/07 00:10:02;;;;;;;;;;;;;;;;;;1052178;28;881;-33
2022/01/07 00:10:33;;;;;;;;;;;;;;;;;;1052332;28;904;-34
2022/01/07 00:11:03;;;;;;;;;;;;;;;;;;1052298;28;940;-34
2022/01/07 00:11:34;;;;;;;;;;;;;;;;;;1052427;28;881;-34
2022/01/07 00:12:04;;;;;;;;;;;;;;;;;;1047752;28;1183;-34
2022/01/07 00:12:35;;;;;;;;;;;;;;;;;;1047767;28;1019;-34
2022/01/07 00:13:05;;;;;;;;;;;;;;;;;;1047832;28;881;-34
2022/01/07 00:13:36;;;;;;;;;;;;;;;;;;1048067;28;849;-34
2022/01/07 00:14:07;;;;;;;;;;;;;;;;;;1052186;28;1167;-34
2022/01/07 00:14:37;;;;;;;;;;;;;;;;;;1052334;28;892;-33
2022/01/07 00:15:08;;;;;;;;;;;;;;;;;;1052326;28;1060;-33
2022/01/07 00:15:39;;;;;;;;;;;;;;;;;;1052417;28;1054;-34
2022/01/07 00:16:11;;;;;;;;;;;;;;;;;;1052367;28;901;-34
2022/01/07 00:16:41;;;;;;;;;;;;;;;;;;1052141;28;897;-34
2022/01/07 00:17:11;;;;;;;;;;;;;;;;;;1052528;28;799;-33
2022/01/07 00:17:42;;;;;;;;;;;;;;;;;;1052265;28;1667;-34
2022/01/07 00:18:12;;;;;;;;;;;;;;;;;;1052327;28;916;-33
2022/01/07 00:18:44;;;;;;;;;;;;;;;;;;1052354;28;818;-33
2022/01/07 00:19:15;;;;;;;;;;;;;;;;;;1052294;28;849;-34
2022/01/07 00:19:46;;;;;;;;;;;;;;;;;;1052362;28;802;-34
2022/01/07 00:20:16;;;;;;;;;;;;;;;;;;1052275;28;833;-34
2022/01/07 00:20:47;;;;;;;;;;;;;;;;;;1052314;28;845;-33
2022/01/07 00:21:17;;;;;;;;;;;;;;;;;;1051965;28;988;-34
2022/01/07 00:21:47;;;;;;;;;;;;;;;;;;1052199;28;774;-34
2022/01/07 00:22:18;;;;;;;;;;;;;;;;;;1052232;28;797;-34
2022/01/07 00:22:48;;;;;;;;;;;;;;;;;;1052391;28;778;-34
2022/01/07 00:23:19;;;;;;;;;;;;;;;;;;1052161;28;1666;-34
2022/01/07 00:23:50;;;;;;;;;;;;;;;;;;1052350;28;897;-33
2022/01/07 00:24:20;;;;;;;;;;;;;;;;;;1052150;28;908;-35
2022/01/07 00:24:50;;;;;;;;;;;;;;;;;;1047700;28;1915;-34
2022/01/07 00:25:22;;;;;;;;;;;;;;;;;;1043700;28;798;-34
2022/01/07 00:25:52;;;;;;;;;;;;;;;;;;1043544;28;1736;-34
2022/01/07 00:26:23;;;;;;;;;;;;;;;;;;1043914;28;873;-34
2022/01/07 00:26:53;;;;;;;;;;;;;;;;;;1048028;28;848;-33
2022/01/07 00:27:23;;;;;;;;;;;;;;;;;;1047627;28;1132;-34
2022/01/07 00:27:54;;;;;;;;;;;;;;;;;;1047872;28;810;-33
2022/01/07 00:28:24;;;;;;;;;;;;;;;;;;1047770;28;808;-34
2022/01/07 00:28:56;;;;;;;;;;;;;;;;;;1047926;28;860;-34
2022/01/07 00:29:26;;;;;;;;;;;;;;;;;;1052359;28;913;-34
2022/01/07 00:29:56;;;;;;;;;;;;;;;;;;1052164;28;857;-34
2022/01/07 00:30:27;;;;;;;;;;;;;;;;;;1052292;28;857;-34
2022/01/07 00:30:57;;;;;;;;;;;;;;;;;;1052239;28;932;-34
2022/01/07 00:31:27;;;;;;;;;;;;;;;;;;1052319;28;884;-34
2022/01/07 00:31:58;;;;;;;;;;;;;;;;;;1052206;28;908;-34
2022/01/07 00:32:28;;;;;;;;;;;;;;;;;;1052305;28;951;-34
2022/01/07 00:32:59;;;;;;;;;;;;;;;;;;1052274;28;821;-43
2022/01/07 00:33:30;;;;;;;;;;;;;;;;;;1052239;28;1004;-43
2022/01/07 00:34:00;;;;;;;;;;;;;;;;;;1052262;28;948;-45
2022/01/07 00:34:30;;;;;;;;;;;;;;;;;;1047874;28;905;-43
2022/01/07 00:35:01;;;;;;;;;;;;;;;;;;1047658;28;954;-43
2022/01/07 00:35:31;;;;;;;;;;;;;;;;;;1047805;28;850;-43
2022/01/07 00:36:02;;;;;;;;;;;;;;;;;;1047844;28;814;-43
2022/01/07 00:36:32;;;;;;;;;;;;;;;;;;1052195;28;984;-43
2022/01/07 00:37:03;;;;;;;;;;;;;;;;;;1052260;28;684;-43
2022/01/07 00:37:33;;;;;;;;;;;;;;;;;;1052191;28;901;-42
2022/01/07 00:38:04;;;;;;;;;;;;;;;;;;1047569;28;835;-41
2022/01/07 00:38:35;;;;;;;;;;;;;;;;;;1047851;28;904;-42
2022/01/07 00:39:05;;;;;;;;;;;;;;;;;;1047583;28;1304;-42
2022/01/07 00:39:36;;;;;;;;;;;;;;;;;;1047753;28;908;-42
2022/01/07 00:40:08;;;;;;;;;;;;;;;;;;1052253;28;945;-42
2022/01/07 00:40:39;;;;;;;;;;;;;;;;;;1052296;28;908;-42
2022/01/07 00:41:09;;;;;;;;;;;;;;;;;;1052257;28;885;-42
2022/01/07 00:41:39;;;;;;;;;;;;;;;;;;1052076;28;853;-42
2022/01/07 00:42:10;;;;;;;;;;;;;;;;;;1052280;28;842;-42
2022/01/07 00:42:40;;;;;;;;;;;;;;;;;;1052168;28;1475;-42
2022/01/07 00:43:10;;;;;;;;;;;;;;;;;;1052245;28;920;-42
2022/01/07 00:43:41;;;;;;;;;;;;;;;;;;1052194;28;968;-42
2022/01/07 00:44:11;;;;;;;;;;;;;;;;;;1052197;28;940;-43
2022/01/07 00:44:42;;;;;;;;;;;;;;;;;;1052136;28;1910;-42
2022/01/07 00:45:12;;;;;;;;;;;;;;;;;;1052302;28;976;-42
2022/01/07 00:45:43;;;;;;;;;;;;;;;;;;1052053;28;936;-42
2022/01/07 00:46:13;;;;;;;;;;;;;;;;;;1052273;28;957;-42
2022/01/07 00:46:43;;;;;;;;;;;;;;;;;;1052193;28;948;-42
2022/01/07 00:47:14;;;;;;;;;;;;;;;;;;1052229;28;893;-42
2022/01/07 00:47:44;;;;;;;;;;;;;;;;;;1052234;28;944;-43
2022/01/07 00:48:14;;;;;;;;;;;;;;;;;;1052104;28;991;-42
2022/01/07 00:48:45;;;;;;;;;;;;;;;;;;1052164;28;1226;-42
2022/01/07 00:49:21;;;;;;;;;;;;;;;;;;1052159;28;873;-42
2022/01/07 00:49:51;;;;;;;;;;;;;;;;;;1052227;28;912;-42
2022/01/07 00:50:23;;;;;;;;;;;;;;;;;;1052000;28;797;-42
2022/01/07 00:50:53;;;;;;;;;;;;;;;;;;1052092;28;957;-42
2022/01/07 00:51:23;;;;;;;;;;;;;;;;;;1052154;28;893;-42
2022/01/07 00:51:54;;;;;;;;;;;;;;;;;;1052290;28;905;-43
2022/01/07 00:52:24;;;;;;;;;;;;;;;;;;1052000;28;833;-42
2022/01/07 00:52:55;;;;;;;;;;;;;;;;;;1052192;28;1027;-42
2022/01/07 00:53:25;;;;;;;;;;;;;;;;;;1052145;28;818;-42
2022/01/07 00:53:55;;;;;;;;;;;;;;;;;;1052156;28;1700;-42
2022/01/07 00:54:26;;;;;;;;;;;;;;;;;;1052094;28;956;-42
2022/01/07 00:54:56;;;;;;;;;;;;;;;;;;1052082;28;823;-42
2022/01/07 00:55:27;;;;;;;;;;;;;;;;;;1052186;28;906;-42
2022/01/07 00:55:57;;;;;;;;;;;;;;;;;;1052211;28;885;-42
2022/01/07 00:56:27;;;;;;;;;;;;;;;;;;1052066;28;951;-42
2022/01/07 00:56:58;;;;;;;;;;;;;;;;;;1052198;28;901;-42
2022/01/07 00:57:28;;;;;;;;;;;;;;;;;;1052086;28;885;-42
2022/01/07 00:57:59;;;;;;;;;;;;;;;;;;1052213;28;798;-42
2022/01/07 00:58:29;;;;;;;;;;;;;;;;;;1052140;28;856;-43
2022/01/07 00:58:59;;;;;;;;;;;;;;;;;;1052178;28;933;-42
2022/01/07 00:59:30;;;;;;;;;;;;;;;;;;1052116;28;929;-42
2022/01/07 01:00:01;;;;;;;;;;;;;;;;;;1052091;28;944;-42
2022/01/07 01:00:31;;;;;;;;;;;;;;;;;;1052032;28;806;-42
2022/01/07 01:01:02;;;;;;;;;;;;;;;;;;1052179;28;836;-43
2022/01/07 01:01:32;;;;;;;;;;;;;;;;;;1052079;28;890;-42
2022/01/07 01:02:03;;;;;;;;;;;;;;;;;;1052133;28;929;-42
2022/01/07 01:02:34;;;;;;;;;;;;;;;;;;1052140;28;944;-42
2022/01/07 01:03:04;;;;;;;;;;;;;;;;;;1051994;28;1016;-42
2022/01/07 01:03:34;;;;;;;;;;;;;;;;;;1052280;28;941;-42
2022/01/07 01:04:05;;;;;;;;;;;;;;;;;;1052087;28;893;-42
2022/01/07 01:04:35;;;;;;;;;;;;;;;;;;1052041;28;1914;-42
2022/01/07 01:05:07;;;;;;;;;;;;;;;;;;1052153;28;1729;-42
2022/01/07 01:05:39;;;;;;;;;;;;;;;;;;1052086;28;893;-42
2022/01/07 01:06:09;;;;;;;;;;;;;;;;;;1052253;28;952;-42
2022/01/07 01:06:41;;;;;;;;;;;;;;;;;;1051962;28;999;-42
2022/01/07 01:07:12;;;;;;;;;;;;;;;;;;1052130;28;897;-42
2022/01/07 01:07:43;;;;;;;;;;;;;;;;;;1052090;28;953;-42
2022/01/07 01:08:14;;;;;;;;;;;;;;;;;;1052128;28;778;-42
2022/01/07 01:08:44;;;;;;;;;;;;;;;;;;1052099;28;885;-43
2022/01/07 01:09:14;;;;;;;;;;;;;;;;;;1052030;28;916;-42
2022/01/07 01:09:45;;;;;;;;;;;;;;;;;;1047628;28;939;-42
2022/01/07 01:10:16;;;;;;;;;;;;;;;;;;1047516;28;841;-42
2022/01/07 01:10:46;;;;;;;;;;;;;;;;;;1047492;28;1559;-42
2022/01/07 01:11:17;;;;;;;;;;;;;;;;;;1047768;28;936;-42
2022/01/07 01:11:47;;;;;;;;;;;;;;;;;;1052173;28;948;-42
2022/01/07 01:12:18;;;;;;;;;;;;;;;;;;1052002;28;849;-42
2022/01/07 01:12:48;;;;;;;;;;;;;;;;;;1052199;28;956;-42
2022/01/07 01:13:19;;;;;;;;;;;;;;;;;;1051891;28;782;-42
2022/01/07 01:13:49;;;;;;;;;;;;;;;;;;1052224;28;778;-42
2022/01/07 01:14:20;;;;;;;;;;;;;;;;;;1052065;28;1120;-42
2022/01/07 01:14:50;;;;;;;;;;;;;;;;;;1047558;28;904;-42
2022/01/07 01:15:24;;;;;;;;;;;;;;;;;;1047476;28;1003;-42
2022/01/07 01:15:54;;;;;;;;;;;;;;;;;;1047598;28;1112;-42
2022/01/07 01:16:24;;;;;;;;;;;;;;;;;;1048105;28;861;-42
2022/01/07 01:16:55;;;;;;;;;;;;;;;;;;1052111;28;861;-42
2022/01/07 01:17:26;;;;;;;;;;;;;;;;;;1051986;28;877;-42
2022/01/07 01:17:57;;;;;;;;;;;;;;;;;;1052081;28;819;-42
2022/01/07 01:18:28;;;;;;;;;;;;;;;;;;1051981;28;985;-42
2022/01/07 01:18:58;;;;;;;;;;;;;;;;;;1052020;28;1111;-42
2022/01/07 01:19:28;;;;;;;;;;;;;;;;;;1052035;28;782;-42
2022/01/07 01:19:59;;;;;;;;;;;;;;;;;;1051997;28;794;-42
2022/01/07 01:20:31;;;;;;;;;;;;;;;;;;1051983;28;854;-42
2022/01/07 01:21:01;;;;;;;;;;;;;;;;;;1052093;28;1016;-42
2022/01/07 01:21:33;;;;;;;;;;;;;;;;;;1051946;28;948;-42
2022/01/07 01:22:04;;;;;;;;;;;;;;;;;;1052059;28;965;-42
2022/01/07 01:22:34;;;;;;;;;;;;;;;;;;1052021;28;1008;-42
2022/01/07 01:23:05;;;;;;;;;;;;;;;;;;1047608;28;1089;-42
2022/01/07 01:23:36;;;;;;;;;;;;;;;;;;1047332;28;883;-42
2022/01/07 01:24:06;;;;;;;;;;;;;;;;;;1047555;28;861;-42
2022/01/07 01:24:36;;;;;;;;;;;;;;;;;;1047179;28;1906;-43
2022/01/07 01:25:08;;;;;;;;;;;;;;;;;;1047958;28;877;-42
2022/01/07 01:25:38;;;;;;;;;;;;;;;;;;1047830;28;850;-42
2022/01/07 01:26:08;;;;;;;;;;;;;;;;;;1048016;28;794;-42
2022/01/07 01:26:39;;;;;;;;;;;;;;;;;;1047690;28;897;-42
2022/01/07 01:27:09;;;;;;;;;;;;;;;;;;1047997;28;794;-42
2022/01/07 01:27:40;;;;;;;;;;;;;;;;;;1047317;28;842;-42
2022/01/07 01:28:10;;;;;;;;;;;;;;;;;;1047464;28;984;-42
2022/01/07 01:28:41;;;;;;;;;;;;;;;;;;1047527;28;905;-42
2022/01/07 01:29:11;;;;;;;;;;;;;;;;;;1047487;28;889;-43
2022/01/07 01:29:42;;;;;;;;;;;;;;;;;;1047953;28;825;-42
2022/01/07 01:30:13;;;;;;;;;;;;;;;;;;1047774;28;933;-42
2022/01/07 01:30:43;;;;;;;;;;;;;;;;;;1047757;28;893;-41
2022/01/07 01:31:15;;;;;;;;;;;;;;;;;;1047929;28;913;-41
2022/01/07 01:31:46;;;;;;;;;;;;;;;;;;1047944;28;889;-41
2022/01/07 01:32:16;;;;;;;;;;;;;;;;;;1047737;28;822;-41
2022/01/07 01:32:47;;;;;;;;;;;;;;;;;;1048066;28;972;-41
2022/01/07 01:33:18;;;;;;;;;;;;;;;;;;1046081;28;1105;-41
2022/01/07 01:33:49;;;;;;;;;;;;;;;;;;1046244;28;1145;-44
2022/01/07 01:34:19;;;;;;;;;;;;;;;;;;1041588;28;1161;-42
2022/01/07 01:34:49;;;;;;;;;;;;;;;;;;1043607;28;1128;-42
2022/01/07 01:35:20;;;;;;;;;;;;;;;;;;1043707;28;790;-43
2022/01/07 01:35:50;;;;;;;;;;;;;;;;;;1043684;28;992;-42
2022/01/07 01:36:21;;;;;;;;;;;;;;;;;;1043637;28;955;-43
2022/01/07 01:36:51;;;;;;;;;;;;;;;;;;1043768;28;1016;-42
2022/01/07 01:37:21;;;;;;;;;;;;;;;;;;1043634;28;941;-40
2022/01/07 01:37:52;;;;;;;;;;;;;;;;;;1043901;28;913;-42
2022/01/07 01:38:22;;;;;;;;;;;;;;;;;;1043551;28;914;-43
2022/01/07 01:38:53;;;;;;;;;;;;;;;;;;1043755;28;1221;-41
2022/01/07 01:39:23;;;;;;;;;;;;;;;;;;1043625;28;1000;-41
2022/01/07 01:39:53;;;;;;;;;;;;;;;;;;1043732;28;937;-41
2022/01/07 01:40:23;;;;;;;;;;;;;;;;;;1043469;28;1024;-41
2022/01/07 01:40:54;;;;;;;;;;;;;;;;;;1043868;28;890;-43
2022/01/07 01:41:25;;;;;;;;;;;;;;;;;;1043551;28;763;-44
2022/01/07 01:41:57;;;;;;;;;;;;;;;;;;1043763;28;830;-44
2022/01/07 01:42:27;;;;;;;;;;;;;;;;;;1043619;28;861;-44
2022/01/07 01:42:58;;;;;;;;;;;;;;;;;;1043694;28;992;-44
2022/01/07 01:43:28;;;;;;;;;;;;;;;;;;1043724;28;966;-43
2022/01/07 01:43:59;;;;;;;;;;;;;;;;;;1043673;28;877;-43
2022/01/07 01:44:29;;;;;;;;;;;;;;;;;;1043720;28;830;-41
2022/01/07 01:44:59;;;;;;;;;;;;;;;;;;1043504;28;1913;-41
2022/01/07 01:45:30;;;;;;;;;;;;;;;;;;1043774;28;814;-41
2022/01/07 01:46:00;;;;;;;;;;;;;;;;;;1043746;28;885;-42
2022/01/07 01:46:30;;;;;;;;;;;;;;;;;;1043623;28;862;-41
2022/01/07 01:47:02;;;;;;;;;;;;;;;;;;1043687;28;865;-41
2022/01/07 01:47:33;;;;;;;;;;;;;;;;;;1043688;28;984;-41
2022/01/07 01:48:03;;;;;;;;;;;;;;;;;;1043770;28;866;-41
2022/01/07 01:48:34;;;;;;;;;;;;;;;;;;1043272;28;938;-42
2022/01/07 01:49:05;;;;;;;;;;;;;;;;;;1039136;28;1016;-41
2022/01/07 01:49:35;;;;;;;;;;;;;;;;;;1039154;28;940;-41
2022/01/07 01:50:06;;;;;;;;;;;;;;;;;;1039435;28;886;-41
2022/01/07 01:50:36;;;;;;;;;;;;;;;;;;1043400;28;921;-41
2022/01/07 01:51:06;;;;;;;;;;;;;;;;;;1043776;28;818;-42
2022/01/07 01:51:37;;;;;;;;;;;;;;;;;;1043522;28;795;-42
2022/01/07 01:52:08;;;;;;;;;;;;;;;;;;1043776;28;898;-42
2022/01/07 01:52:42;;;;;;;;;;;;;;;;;;1043594;28;905;-42
2022/01/07 01:53:13;;;;;;;;;;;;;;;;;;1043697;28;838;-42
2022/01/07 01:53:43;;;;;;;;;;;;;;;;;;1043629;28;952;-42
2022/01/07 01:54:14;;;;;;;;;;;;;;;;;;1043737;28;889;-42
2022/01/07 01:54:44;;;;;;;;;;;;;;;;;;1043638;28;953;-42
2022/01/07 01:55:16;;;;;;;;;;;;;;;;;;1043648;28;960;-42
2022/01/07 01:55:46;;;;;;;;;;;;;;;;;;1043579;28;893;-42
2022/01/07 01:56:17;;;;;;;;;;;;;;;;;;1043705;28;956;-41
2022/01/07 01:56:47;;;;;;;;;;;;;;;;;;1043558;28;873;-42
2022/01/07 01:57:17;;;;;;;;;;;;;;;;;;1043598;28;945;-42
2022/01/07 01:57:50;;;;;;;;;;;;;;;;;;1039195;28;1328;-42
2022/01/07 01:58:21;;;;;;;;;;;;;;;;;;1039151;28;897;-42
2022/01/07 01:58:51;;;;;;;;;;;;;;;;;;1039219;28;882;-42
2022/01/07 01:59:28;;;;;;;;;;;;;;;;;;1039493;28;1000;-43
2022/01/07 01:59:59;;;;;;;;;;;;;;;;;;1043483;28;968;-42
2022/01/07 02:00:29;;;;;;;;;;;;;;;;;;1043695;28;916;-42
2022/01/07 02:01:00;;;;;;;;;;;;;;;;;;1043549;28;937;-42
2022/01/07 02:01:30;;;;;;;;;;;;;;;;;;1043727;28;972;-42
2022/01/07 02:02:01;;;;;;;;;;;;;;;;;;1043658;28;916;-42
2022/01/07 02:02:31;;;;;;;;;;;;;;;;;;1043641;28;909;-43
2022/01/07 02:03:01;;;;;;;;;;;;;;;;;;1043722;28;873;-42
2022/01/07 02:03:32;;;;;;;;;;;;;;;;;;1043539;28;941;-42
2022/01/07 02:04:02;;;;;;;;;;;;;;;;;;1043605;28;996;-42
2022/01/07 02:04:33;;;;;;;;;;;;;;;;;;1043620;28;1980;-41
2022/01/07 02:05:04;;;;;;;;;;;;;;;;;;1043483;28;877;-40
2022/01/07 02:05:34;;;;;;;;;;;;;;;;;;1043529;28;988;-41
2022/01/07 02:06:05;;;;;;;;;;;;;;;;;;1043767;28;881;-42
2022/01/07 02:06:36;;;;;;;;;;;;;;;;;;1043521;28;925;-41
2022/01/07 02:07:08;;;;;;;;;;;;;;;;;;1043657;28;921;-42
2022/01/07 02:07:40;;;;;;;;;;;;;;;;;;1043508;28;873;-42
2022/01/07 02:08:10;;;;;;;;;;;;;;;;;;1043717;28;888;-41
2022/01/07 02:08:41;;;;;;;;;;;;;;;;;;1039220;28;932;-42
2022/01/07 02:09:11;;;;;;;;;;;;;;;;;;1039139;28;968;-42
2022/01/07 02:09:41;;;;;;;;;;;;;;;;;;1039161;28;881;-42
2022/01/07 02:10:13;;;;;;;;;;;;;;;;;;1038989;28;810;-42
2022/01/07 02:10:44;;;;;;;;;;;;;;;;;;1043543;28;936;-41
2022/01/07 02:11:14;;;;;;;;;;;;;;;;;;1043762;28;921;-41
2022/01/07 02:11:44;;;;;;;;;;;;;;;;;;1043630;28;779;-42
2022/01/07 02:12:15;;;;;;;;;;;;;;;;;;1043669;28;937;-42
2022/01/07 02:12:45;;;;;;;;;;;;;;;;;;1043612;28;948;-41
2022/01/07 02:13:16;;;;;;;;;;;;;;;;;;1043596;28;948;-42
2022/01/07 02:13:48;;;;;;;;;;;;;;;;;;1043682;28;905;-42
2022/01/07 02:14:18;;;;;;;;;;;;;;;;;;1043495;28;904;-42
2022/01/07 02:14:52;;;;;;;;;;;;;;;;;;1043726;28;929;-42
2022/01/07 02:15:22;;;;;;;;;;;;;;;;;;1043587;28;881;-42
2022/01/07 02:15:53;;;;;;;;;;;;;;;;;;1045984;28;1038;-41
2022/01/07 02:16:24;;;;;;;;;;;;;;;;;;1047722;28;902;-43
2022/01/07 02:16:54;;;;;;;;;;;;;;;;;;1047644;28;806;-43
2022/01/07 02:17:25;;;;;;;;;;;;;;;;;;1047875;28;873;-42
2022/01/07 02:17:57;;;;;;;;;;;;;;;;;;1047762;28;908;-43
2022/01/07 02:18:27;;;;;;;;;;;;;;;;;;1047709;28;1010;-43
2022/01/07 02:18:58;;;;;;;;;;;;;;;;;;1047756;28;770;-44
2022/01/07 02:19:30;;;;;;;;;;;;;;;;;;1047687;28;861;-43
2022/01/07 02:20:00;;;;;;;;;;;;;;;;;;1047741;28;905;-43
2022/01/07 02:20:31;;;;;;;;;;;;;;;;;;1047735;28;802;-42
2022/01/07 02:21:01;;;;;;;;;;;;;;;;;;1047524;28;841;-43
2022/01/07 02:21:35;;;;;;;;;;;;;;;;;;1047910;28;933;-43
2022/01/07 02:22:05;;;;;;;;;;;;;;;;;;1047717;28;826;-42
2022/01/07 02:22:36;;;;;;;;;;;;;;;;;;1047522;28;961;-43
2022/01/07 02:23:06;;;;;;;;;;;;;;;;;;1047717;28;884;-43
2022/01/07 02:23:37;;;;;;;;;;;;;;;;;;1047421;28;882;-43
2022/01/07 02:24:07;;;;;;;;;;;;;;;;;;1043226;28;683;-43
2022/01/07 02:24:37;;;;;;;;;;;;;;;;;;1045197;28;1902;-43
2022/01/07 02:25:08;;;;;;;;;;;;;;;;;;1047380;28;968;-43
2022/01/07 02:25:38;;;;;;;;;;;;;;;;;;1047422;28;968;-42
2022/01/07 02:26:10;;;;;;;;;;;;;;;;;;1047808;28;901;-43
2022/01/07 02:26:41;;;;;;;;;;;;;;;;;;1047670;28;913;-43
2022/01/07 02:27:12;;;;;;;;;;;;;;;;;;1047876;28;830;-42
2022/01/07 02:27:43;;;;;;;;;;;;;;;;;;1047673;28;945;-43
2022/01/07 02:28:14;;;;;;;;;;;;;;;;;;1047916;28;889;-43
2022/01/07 02:28:45;;;;;;;;;;;;;;;;;;1047653;28;866;-43
2022/01/07 02:29:15;;;;;;;;;;;;;;;;;;1047718;28;893;-43
2022/01/07 02:29:47;;;;;;;;;;;;;;;;;;1047854;28;901;-43
2022/01/07 02:30:19;;;;;;;;;;;;;;;;;;1047493;28;853;-43
2022/01/07 02:30:49;;;;;;;;;;;;;;;;;;1047674;28;841;-44
2022/01/07 02:31:20;;;;;;;;;;;;;;;;;;1047191;28;915;-43
2022/01/07 02:31:50;;;;;;;;;;;;;;;;;;1047796;28;992;-43
2022/01/07 02:32:21;;;;;;;;;;;;;;;;;;1047783;28;873;-43
2022/01/07 02:32:51;;;;;;;;;;;;;;;;;;1047646;28;805;-43
2022/01/07 02:33:22;;;;;;;;;;;;;;;;;;1047799;28;814;-43
2022/01/07 02:33:53;;;;;;;;;;;;;;;;;;1047744;28;925;-44
2022/01/07 02:34:23;;;;;;;;;;;;;;;;;;1047723;28;834;-43
2022/01/07 02:34:53;;;;;;;;;;;;;;;;;;1047771;28;822;-43
2022/01/07 02:35:25;;;;;;;;;;;;;;;;;;1047623;28;814;-43
2022/01/07 02:35:56;;;;;;;;;;;;;;;;;;1047670;28;956;-43
2022/01/07 02:36:26;;;;;;;;;;;;;;;;;;1047807;28;949;-43
2022/01/07 02:36:56;;;;;;;;;;;;;;;;;;1047560;28;906;-43
2022/01/07 02:37:27;;;;;;;;;;;;;;;;;;1047823;28;873;-43
2022/01/07 02:37:57;;;;;;;;;;;;;;;;;;1047594;28;940;-44
2022/01/07 02:38:28;;;;;;;;;;;;;;;;;;1047802;28;979;-43
2022/01/07 02:38:58;;;;;;;;;;;;;;;;;;1047636;28;1252;-43
2022/01/07 02:39:29;;;;;;;;;;;;;;;;;;1047563;28;901;-42
2022/01/07 02:39:59;;;;;;;;;;;;;;;;;;1047619;28;964;-43
2022/01/07 02:40:30;;;;;;;;;;;;;;;;;;1047674;28;822;-42
2022/01/07 02:41:00;;;;;;;;;;;;;;;;;;1047489;28;1102;-42
2022/01/07 02:41:31;;;;;;;;;;;;;;;;;;1047833;28;920;-43
2022/01/07 02:42:01;;;;;;;;;;;;;;;;;;1047653;28;843;-43
2022/01/07 02:42:32;;;;;;;;;;;;;;;;;;1047802;28;857;-43
2022/01/07 02:43:02;;;;;;;;;;;;;;;;;;1047580;28;933;-43
2022/01/07 02:43:33;;;;;;;;;;;;;;;;;;1047637;28;949;-42
2022/01/07 02:44:03;;;;;;;;;;;;;;;;;;1047718;28;787;-43
2022/01/07 02:44:33;;;;;;;;;;;;;;;;;;1047694;28;964;-43
2022/01/07 02:45:08;;;;;;;;;;;;;;;;;;1047699;28;896;-42
2022/01/07 02:45:38;;;;;;;;;;;;;;;;;;1047687;28;853;-43
2022/01/07 02:46:08;;;;;;;;;;;;;;;;;;1047624;28;874;-43
2022/01/07 02:46:39;;;;;;;;;;;;;;;;;;1048439;28;822;-43
2022/01/07 02:47:09;;;;;;;;;;;;;;;;;;1048528;28;834;-43
2022/01/07 02:48:16;;;;;;;;;;;;;;;;;;1048637;28;873;-42
2022/01/07 02:48:46;;;;;;;;;;;;;;;;;;1048371;28;1335;-44
2022/01/07 02:49:18;;;;;;;;;;;;;;;;;;1048477;28;786;-42
2022/01/07 02:49:48;;;;;;;;;;;;;;;;;;1048416;28;1432;-43
2022/01/07 02:50:20;;;;;;;;;;;;;;;;;;1048473;28;805;-43
2022/01/07 02:50:50;;;;;;;;;;;;;;;;;;1048623;28;897;-43
2022/01/07 02:51:21;;;;;;;;;;;;;;;;;;1048368;28;1801;-43
2022/01/07 02:51:51;;;;;;;;;;;;;;;;;;1048543;28;810;-43
2022/01/07 02:52:21;;;;;;;;;;;;;;;;;;1048575;28;846;-43
2022/01/07 02:52:53;;;;;;;;;;;;;;;;;;1048392;28;991;-43
2022/01/07 02:53:23;;;;;;;;;;;;;;;;;;1048668;28;881;-41
2022/01/07 02:53:53;;;;;;;;;;;;;;;;;;1048418;28;882;-42
2022/01/07 02:54:24;;;;;;;;;;;;;;;;;;1048549;28;877;-43
2022/01/07 02:54:54;;;;;;;;;;;;;;;;;;1048484;28;838;-42
2022/01/07 02:55:25;;;;;;;;;;;;;;;;;;1048515;28;961;-43
2022/01/07 02:55:55;;;;;;;;;;;;;;;;;;1048412;28;1007;-42
2022/01/07 02:56:26;;;;;;;;;;;;;;;;;;1048579;28;992;-43
2022/01/07 02:56:56;;;;;;;;;;;;;;;;;;1048376;28;945;-43
2022/01/07 02:57:26;;;;;;;;;;;;;;;;;;1048712;28;880;-43
2022/01/07 02:57:57;;;;;;;;;;;;;;;;;;1048345;28;814;-43
2022/01/07 02:58:27;;;;;;;;;;;;;;;;;;1048567;28;818;-43
2022/01/07 02:58:58;;;;;;;;;;;;;;;;;;1048389;28;963;-43
2022/01/07 02:59:28;;;;;;;;;;;;;;;;;;1048569;28;872;-43
2022/01/07 02:59:58;;;;;;;;;;;;;;;;;;1048436;28;952;-43
2022/01/07 03:00:29;;;;;;;;;;;;;;;;;;1048309;28;933;-43
2022/01/07 03:01:00;;;;;;;;;;;;;;;;;;1048463;28;880;-43
2022/01/07 03:01:30;;;;;;;;;;;;;;;;;;1048508;28;890;-43
2022/01/07 03:02:00;;;;;;;;;;;;;;;;;;1048381;28;857;-43
2022/01/07 03:02:31;;;;;;;;;;;;;;;;;;1048577;28;779;-43
2022/01/07 03:03:02;;;;;;;;;;;;;;;;;;1048355;28;941;-43
2022/01/07 03:03:33;;;;;;;;;;;;;;;;;;1048479;28;949;-43
2022/01/07 03:04:04;;;;;;;;;;;;;;;;;;1048397;28;944;-43
2022/01/07 03:04:34;;;;;;;;;;;;;;;;;;1048392;28;940;-43
2022/01/07 03:05:05;;;;;;;;;;;;;;;;;;1048435;28;2079;-42
2022/01/07 03:05:39;;;;;;;;;;;;;;;;;;1048521;28;897;-43
2022/01/07 03:06:09;;;;;;;;;;;;;;;;;;1048356;28;905;-43
2022/01/07 03:06:40;;;;;;;;;;;;;;;;;;1048455;28;833;-43
2022/01/07 03:07:11;;;;;;;;;;;;;;;;;;1048444;28;857;-42
2022/01/07 03:07:41;;;;;;;;;;;;;;;;;;1048454;28;936;-43
2022/01/07 03:08:12;;;;;;;;;;;;;;;;;;1048528;28;936;-43
2022/01/07 03:08:46;;;;;;;;;;;;;;;;;;1048019;28;949;-43
2022/01/07 03:09:16;;;;;;;;;;;;;;;;;;1047946;28;857;-43
2022/01/07 03:09:46;;;;;;;;;;;;;;;;;;1048207;28;980;-43
2022/01/07 03:10:18;;;;;;;;;;;;;;;;;;1047881;28;925;-43
2022/01/07 03:10:48;;;;;;;;;;;;;;;;;;1048606;28;790;-43
2022/01/07 03:11:19;;;;;;;;;;;;;;;;;;1048231;28;944;-43
2022/01/07 03:11:49;;;;;;;;;;;;;;;;;;1048648;28;872;-43
2022/01/07 03:12:20;;;;;;;;;;;;;;;;;;1048229;28;866;-44
2022/01/07 03:12:50;;;;;;;;;;;;;;;;;;1048489;28;1087;-43
2022/01/07 03:13:20;;;;;;;;;;;;;;;;;;1048373;28;901;-43
2022/01/07 03:13:51;;;;;;;;;;;;;;;;;;1048409;28;937;-44
2022/01/07 03:14:21;;;;;;;;;;;;;;;;;;1048373;28;897;-43
2022/01/07 03:14:51;;;;;;;;;;;;;;;;;;1048490;28;921;-43
2022/01/07 03:15:22;;;;;;;;;;;;;;;;;;1048319;28;905;-42
2022/01/07 03:15:52;;;;;;;;;;;;;;;;;;1048537;28;1095;-42
2022/01/07 03:16:23;;;;;;;;;;;;;;;;;;1048184;28;1196;-43
2022/01/07 03:16:53;;;;;;;;;;;;;;;;;;1048514;28;850;-44
2022/01/07 03:17:23;;;;;;;;;;;;;;;;;;1048191;28;937;-43
2022/01/07 03:17:54;;;;;;;;;;;;;;;;;;1048469;28;948;-44
2022/01/07 03:18:24;;;;;;;;;;;;;;;;;;1048352;28;857;-44
2022/01/07 03:18:54;;;;;;;;;;;;;;;;;;1048453;28;945;-44
2022/01/07 03:19:25;;;;;;;;;;;;;;;;;;1048253;28;881;-43
2022/01/07 03:19:55;;;;;;;;;;;;;;;;;;1048515;28;779;-42
2022/01/07 03:20:25;;;;;;;;;;;;;;;;;;1048128;28;836;-44
2022/01/07 03:20:58;;;;;;;;;;;;;;;;;;1048529;28;900;-44
2022/01/07 03:21:29;;;;;;;;;;;;;;;;;;1047503;28;1014;-44
2022/01/07 03:21:59;;;;;;;;;;;;;;;;;;1048359;28;830;-44
2022/01/07 03:22:29;;;;;;;;;;;;;;;;;;1048403;28;987;-44
2022/01/07 03:22:59;;;;;;;;;;;;;;;;;;1048318;28;921;-44
2022/01/07 03:23:30;;;;;;;;;;;;;;;;;;1048339;28;988;-43
2022/01/07 03:24:01;;;;;;;;;;;;;;;;;;1048416;28;929;-44
2022/01/07 03:24:32;;;;;;;;;;;;;;;;;;1049660;28;1203;-45
2022/01/07 03:25:02;;;;;;;;;;;;;;;;;;1052485;28;1930;-43
2022/01/07 03:25:33;;;;;;;;;;;;;;;;;;1052416;28;826;-44
2022/01/07 03:26:04;;;;;;;;;;;;;;;;;;1052511;28;956;-43
2022/01/07 03:26:34;;;;;;;;;;;;;;;;;;1052629;28;858;-43
2022/01/07 03:27:04;;;;;;;;;;;;;;;;;;1052501;28;955;-43
2022/01/07 03:27:35;;;;;;;;;;;;;;;;;;1052486;28;965;-43
2022/01/07 03:28:07;;;;;;;;;;;;;;;;;;1052581;28;810;-43
2022/01/07 03:28:38;;;;;;;;;;;;;;;;;;1052475;28;1030;-43
2022/01/07 03:29:09;;;;;;;;;;;;;;;;;;1052626;28;889;-43
2022/01/07 03:29:39;;;;;;;;;;;;;;;;;;1052396;28;924;-43
2022/01/07 03:30:10;;;;;;;;;;;;;;;;;;1052518;28;813;-43
2022/01/07 03:30:41;;;;;;;;;;;;;;;;;;1052506;28;834;-44
2022/01/07 03:31:11;;;;;;;;;;;;;;;;;;1052460;28;914;-43
2022/01/07 03:31:41;;;;;;;;;;;;;;;;;;1052498;28;885;-43
2022/01/07 03:32:12;;;;;;;;;;;;;;;;;;1047965;28;814;-43
2022/01/07 03:32:42;;;;;;;;;;;;;;;;;;1047974;28;937;-43
2022/01/07 03:33:13;;;;;;;;;;;;;;;;;;1048076;28;910;-42
2022/01/07 03:33:43;;;;;;;;;;;;;;;;;;1047912;28;988;-43
2022/01/07 03:34:13;;;;;;;;;;;;;;;;;;1052490;28;829;-43
2022/01/07 03:34:44;;;;;;;;;;;;;;;;;;1052552;28;999;-43
2022/01/07 03:35:16;;;;;;;;;;;;;;;;;;1052421;28;936;-42
2022/01/07 03:35:46;;;;;;;;;;;;;;;;;;1052561;28;908;-43
2022/01/07 03:36:16;;;;;;;;;;;;;;;;;;1052349;28;802;-43
2022/01/07 03:36:47;;;;;;;;;;;;;;;;;;1052699;28;873;-43